createdAt,value
2023-03-15T00:01:27.236Z,77.80
2023-03-15T00:06:33.765Z,77.50
2023-03-15T00:11:39.714Z,77.30
2023-03-15T00:16:43.611Z,77.30
2023-03-15T00:21:47.296Z,77.40
2023-03-15T00:26:52.092Z,77.50
2023-03-15T00:31:55.476Z,77.40
2023-03-15T00:36:59.137Z,77.00
2023-03-15T00:42:03.994Z,76.70
2023-03-15T00:47:07.673Z,76.40
2023-03-15T00:52:12.618Z,76.40
2023-03-15T00:57:17.350Z,75.90
2023-03-15T01:02:22.203Z,76.10
2023-03-15T01:07:25.684Z,75.70
2023-03-15T01:12:34.722Z,75.70
2023-03-15T01:17:38.209Z,75.30
2023-03-15T01:22:41.787Z,74.70
2023-03-15T01:27:46.575Z,74.70
2023-03-15T01:32:50.056Z,75.00
2023-03-15T01:37:53.886Z,74.80
2023-03-15T01:43:15.915Z,75.10
2023-03-15T01:48:20.976Z,74.40
2023-03-15T01:53:26.144Z,74.10
2023-03-15T01:58:31.414Z,74.00
2023-03-15T02:03:38.984Z,73.80
2023-03-15T02:08:46.728Z,72.70
2023-03-15T02:13:52.759Z,72.50
2023-03-15T02:18:56.184Z,72.70
2023-03-15T02:24:07.065Z,72.20
2023-03-15T02:29:12.671Z,72.20
2023-03-15T02:34:16.534Z,72.40
2023-03-15T02:39:21.876Z,73.00
2023-03-15T02:44:30.397Z,73.20
2023-03-15T02:49:38.184Z,72.80
2023-03-15T02:54:43.470Z,72.90
2023-03-15T02:59:50.964Z,72.90
2023-03-15T03:04:54.443Z,72.70
2023-03-15T03:09:57.958Z,72.60
2023-03-15T03:15:05.056Z,72.40
2023-03-15T03:20:10.582Z,72.20
2023-03-15T03:25:14.352Z,72.10
2023-03-15T03:30:19.312Z,71.90
2023-03-15T03:35:22.710Z,71.90
2023-03-15T03:40:26.114Z,71.50
2023-03-15T03:45:31.028Z,71.30
2023-03-15T03:50:34.582Z,71.20
2023-03-15T03:55:39.348Z,70.90
2023-03-15T04:00:44.262Z,70.70
2023-03-15T04:05:47.941Z,71.10
2023-03-15T04:10:52.346Z,70.80
2023-03-15T04:15:58.112Z,71.20
2023-03-15T04:21:01.586Z,71.10
2023-03-15T04:26:06.686Z,71.10
2023-03-15T04:31:14.964Z,71.20
2023-03-15T04:36:19.404Z,71.10
2023-03-15T04:41:27.062Z,70.80
2023-03-15T04:46:32.287Z,70.70
2023-03-15T04:51:35.801Z,70.60
2023-03-15T04:56:39.238Z,71.50
2023-03-15T05:01:44.336Z,70.60
2023-03-15T05:06:47.722Z,70.20
2023-03-15T05:11:51.142Z,70.30
2023-03-15T05:16:58.747Z,70.00
2023-03-15T05:22:02.201Z,70.20
2023-03-15T05:27:05.648Z,70.00
2023-03-15T05:32:10.918Z,70.00
2023-03-15T05:37:14.356Z,69.90
2023-03-15T05:42:22.089Z,69.90
2023-03-15T05:47:26.986Z,69.90
2023-03-15T05:52:30.358Z,70.00
2023-03-15T05:57:33.750Z,70.00
2023-03-15T06:02:38.735Z,69.80
2023-03-15T06:07:42.456Z,69.60
2023-03-15T06:12:45.802Z,69.50
2023-03-15T06:17:50.615Z,69.40
2023-03-15T06:22:54.296Z,69.50
2023-03-15T06:27:57.963Z,69.50
2023-03-15T06:33:03.097Z,69.50
2023-03-15T06:38:06.884Z,69.30
2023-03-15T06:43:14.179Z,69.20
2023-03-15T06:48:18.899Z,69.10
2023-03-15T06:53:22.545Z,69.10
2023-03-15T06:58:26.291Z,69.90
2023-03-15T07:03:31.273Z,69.80
2023-03-15T07:08:34.917Z,69.60
2023-03-15T07:13:38.564Z,69.50
2023-03-15T07:18:43.806Z,69.20
2023-03-15T07:23:47.454Z,68.50
2023-03-15T07:28:50.913Z,68.80
2023-03-15T07:33:55.650Z,68.40
2023-03-15T07:38:59.033Z,68.00
2023-03-15T07:44:02.484Z,68.20
2023-03-15T07:49:07.271Z,68.50
2023-03-15T07:54:11.270Z,68.70
2023-03-15T07:59:15.577Z,68.30
2023-03-15T08:04:20.288Z,67.80
2023-03-15T08:09:25.002Z,67.20
2023-03-15T08:14:29.233Z,66.90
2023-03-15T08:19:34.453Z,66.70
2023-03-15T08:24:37.918Z,67.40
2023-03-15T08:29:41.615Z,66.00
2023-03-15T08:34:46.770Z,65.10
2023-03-15T08:39:50.128Z,64.90
2023-03-15T08:44:53.517Z,65.50
2023-03-15T08:49:58.524Z,64.80
2023-03-15T08:55:02.205Z,64.70
2023-03-15T09:00:09.296Z,64.70
2023-03-15T09:05:14.168Z,64.10
2023-03-15T09:10:18.774Z,63.10
2023-03-15T09:15:22.222Z,63.00
2023-03-15T09:20:28.530Z,63.20
2023-03-15T09:25:31.903Z,62.70
2023-03-15T09:30:36.353Z,62.40
2023-03-15T09:35:41.252Z,62.60
2023-03-15T09:40:46.201Z,62.00
2023-03-15T09:46:02.041Z,62.10
2023-03-15T09:51:13.310Z,61.90
2023-03-15T09:56:24.362Z,59.00
2023-03-15T10:01:32.715Z,59.90
2023-03-15T10:06:46.240Z,59.40
2023-03-15T10:12:00.240Z,60.80
2023-03-15T10:17:08.634Z,59.70
2023-03-15T10:22:23.059Z,58.60
2023-03-15T10:27:32.036Z,57.70
2023-03-15T10:32:39.952Z,57.40
2023-03-15T10:37:45.561Z,57.60
2023-03-15T10:42:49.203Z,56.60
2023-03-15T10:48:00.474Z,56.50
2023-03-15T10:53:11.490Z,55.40
2023-03-15T10:58:25.764Z,54.80
2023-03-15T11:03:29.896Z,54.80
2023-03-15T11:08:42.767Z,54.30
2023-03-15T11:14:00.592Z,52.90
2023-03-15T11:19:06.681Z,53.70
2023-03-15T11:24:23.924Z,53.70
2023-03-15T11:29:30.037Z,52.80
2023-03-15T11:34:42.062Z,51.40
2023-03-15T11:40:05.091Z,50.20
2023-03-15T11:45:17.750Z,50.60
2023-03-15T11:50:21.683Z,51.20
2023-03-15T11:55:29.156Z,50.80
2023-03-15T12:00:51.260Z,51.40
2023-03-15T12:06:02.276Z,50.80
2023-03-15T12:11:12.747Z,50.70
2023-03-15T12:16:16.385Z,50.80
2023-03-15T12:21:23.335Z,51.50
2023-03-15T12:26:35.415Z,51.90
2023-03-15T12:31:54.546Z,51.00
2023-03-15T12:37:01.678Z,49.30
2023-03-15T12:42:07.131Z,47.90
2023-03-15T12:47:11.718Z,48.20
2023-03-15T12:52:34.904Z,47.40
2023-03-15T12:57:47.595Z,47.60
2023-03-15T13:02:54.255Z,46.80
2023-03-15T13:08:08.810Z,47.00
2023-03-15T13:13:28.309Z,46.80
2023-03-15T13:18:35.168Z,47.30
2023-03-15T13:23:39.148Z,47.00
2023-03-15T13:28:49.541Z,47.70
2023-03-15T13:33:57.259Z,47.30
2023-03-15T13:39:00.601Z,47.20
2023-03-15T13:44:15.311Z,47.20
2023-03-15T13:49:19.981Z,47.70
2023-03-15T13:54:28.284Z,47.10
2023-03-15T13:59:37.404Z,47.00
2023-03-15T14:04:41.755Z,48.00
2023-03-15T14:09:45.479Z,48.10
2023-03-15T14:14:53.133Z,49.60
2023-03-15T14:20:06.824Z,50.00
2023-03-15T14:25:22.186Z,48.20
2023-03-15T14:30:27.165Z,48.40
2023-03-15T14:35:32.431Z,48.90
2023-03-15T14:40:38.679Z,49.10
2023-03-15T14:45:45.441Z,49.30
2023-03-15T14:50:49.391Z,49.40
2023-03-15T14:55:53.093Z,48.80
2023-03-15T15:00:58.971Z,48.80
2023-03-15T15:06:03.748Z,49.20
2023-03-15T15:11:08.629Z,48.30
2023-03-15T15:16:13.502Z,48.80
2023-03-15T15:21:22.663Z,48.40
2023-03-15T15:26:28.120Z,48.40
2023-03-15T15:31:34.962Z,49.00
2023-03-15T15:36:42.005Z,49.70
2023-03-15T15:41:45.428Z,50.00
2023-03-15T15:46:50.579Z,52.50
2023-03-15T15:51:54.197Z,53.20
2023-03-15T15:56:59.768Z,53.20
2023-03-15T16:02:05.172Z,53.50
2023-03-15T16:07:11.257Z,54.00
2023-03-15T16:12:16.509Z,54.40
2023-03-15T16:17:23.052Z,54.70
2023-03-15T16:22:27.169Z,54.70
2023-03-15T16:27:31.371Z,54.70
2023-03-15T16:32:44.379Z,54.50
2023-03-15T16:37:48.409Z,54.30
2023-03-15T16:42:51.859Z,54.00
2023-03-15T16:47:56.996Z,54.00
2023-03-15T16:53:03.243Z,53.80
2023-03-15T16:58:17.512Z,54.90
2023-03-15T17:03:22.390Z,55.50
2023-03-15T17:08:26.351Z,56.20
2023-03-15T17:13:31.884Z,56.40
2023-03-15T17:18:37.075Z,57.20
2023-03-15T17:23:41.046Z,57.20
2023-03-15T17:28:46.482Z,57.60
2023-03-15T17:33:52.322Z,58.10
2023-03-15T17:38:56.285Z,58.20
2023-03-15T17:44:00.227Z,58.20
2023-03-15T17:49:07.068Z,58.20
2023-03-15T17:54:14.747Z,58.00
2023-03-15T17:59:18.716Z,58.10
2023-03-15T18:04:23.582Z,58.10
2023-03-15T18:09:27.280Z,58.40
2023-03-15T18:14:31.472Z,58.70
2023-03-15T18:19:36.254Z,58.70
2023-03-15T18:24:39.693Z,58.50
2023-03-15T18:29:43.156Z,58.80
2023-03-15T18:34:47.888Z,58.90
2023-03-15T18:39:51.326Z,58.90
2023-03-15T18:44:54.729Z,59.90
2023-03-15T18:50:09.826Z,61.70
2023-03-15T18:55:15.974Z,65.80
2023-03-15T19:00:26.381Z,69.60
2023-03-15T19:05:34.189Z,71.50
2023-03-15T19:10:37.636Z,74.10
2023-03-15T19:15:41.046Z,76.10
2023-03-15T19:20:47.263Z,76.60
2023-03-15T19:25:51.065Z,77.20
2023-03-15T19:30:54.848Z,78.10
2023-03-15T19:36:00.096Z,78.60
2023-03-15T19:41:04.709Z,79.10
2023-03-15T19:46:08.209Z,80.00
2023-03-15T19:51:13.101Z,77.50
2023-03-15T19:56:17.018Z,74.80
2023-03-15T20:01:20.773Z,73.00
2023-03-15T20:06:25.602Z,71.50
2023-03-15T20:11:29.422Z,70.50
2023-03-15T20:16:33.193Z,70.00
2023-03-15T20:21:38.053Z,69.60
2023-03-15T20:26:41.557Z,69.10
2023-03-15T20:31:45.520Z,68.70
2023-03-15T20:36:52.834Z,68.50
2023-03-15T20:41:56.249Z,68.00
2023-03-15T20:46:59.981Z,67.70
2023-03-15T20:52:05.207Z,67.60
2023-03-15T20:57:08.619Z,67.20
2023-03-15T21:02:12.371Z,67.20
2023-03-15T21:07:17.218Z,66.90
2023-03-15T21:12:21.004Z,66.80
2023-03-15T21:17:24.698Z,67.00
2023-03-15T21:22:29.513Z,67.10
2023-03-15T21:27:33.904Z,67.10
2023-03-15T21:32:38.390Z,67.00
2023-03-15T21:37:43.256Z,67.00
2023-03-15T21:42:47.950Z,66.90
2023-03-15T21:47:52.692Z,67.20
2023-03-15T21:52:57.812Z,67.40
2023-03-15T21:58:01.942Z,67.60
2023-03-15T22:03:05.694Z,67.60
2023-03-15T22:08:10.952Z,67.50
2023-03-15T22:13:14.336Z,67.20
2023-03-15T22:18:17.768Z,67.00
2023-03-15T22:23:22.764Z,67.00
2023-03-15T22:28:26.440Z,66.80
2023-03-15T22:33:29.831Z,66.50
2023-03-15T22:38:38.015Z,66.40
2023-03-15T22:43:41.399Z,66.50
2023-03-15T22:48:44.759Z,66.60
2023-03-15T22:53:49.663Z,66.60
2023-03-15T22:58:55.561Z,66.70
2023-03-15T23:03:59.224Z,66.60
2023-03-15T23:09:06.517Z,66.60
2023-03-15T23:14:10.149Z,67.30
2023-03-15T23:19:15.029Z,66.10
2023-03-15T23:24:19.887Z,66.00
2023-03-15T23:29:23.596Z,66.00
2023-03-15T23:34:27.520Z,65.90
2023-03-15T23:39:32.286Z,66.00
2023-03-15T23:44:36.070Z,66.10
2023-03-15T23:49:39.561Z,66.50
2023-03-15T23:54:44.817Z,66.90
2023-03-15T23:59:49.832Z,67.00
